sensor_id;sensor_type;location;lat;lon;timestamp;temperature;humidity
19110;DHT22;9687;50.836;12.060;2024-01-30T00:00:10;8.20;59.00
19110;DHT22;9687;50.836;12.060;2024-01-30T00:02:50;8.20;59.10
19110;DHT22;9687;50.836;12.060;2024-01-30T00:05:33;8.10;59.20
19110;DHT22;9687;50.836;12.060;2024-01-30T00:08:03;8.10;59.30
19110;DHT22;9687;50.836;12.060;2024-01-30T00:10:49;8.10;59.30
19110;DHT22;9687;50.836;12.060;2024-01-30T00:13:20;8.00;59.30
19110;DHT22;9687;50.836;12.060;2024-01-30T00:15:48;8.00;59.40
19110;DHT22;9687;50.836;12.060;2024-01-30T00:18:29;8.00;59.50
19110;DHT22;9687;50.836;12.060;2024-01-30T00:21:10;7.90;59.60
19110;DHT22;9687;50.836;12.060;2024-01-30T00:23:39;7.90;59.60
19110;DHT22;9687;50.836;12.060;2024-01-30T00:26:07;7.90;59.70
19110;DHT22;9687;50.836;12.060;2024-01-30T00:28:36;7.90;59.70
19110;DHT22;9687;50.836;12.060;2024-01-30T00:31:05;7.90;59.90
19110;DHT22;9687;50.836;12.060;2024-01-30T00:33:34;7.90;60.00
19110;DHT22;9687;50.836;12.060;2024-01-30T00:36:01;7.90;59.90
19110;DHT22;9687;50.836;12.060;2024-01-30T00:38:29;7.80;59.80
19110;DHT22;9687;50.836;12.060;2024-01-30T00:41:00;7.90;59.90
19110;DHT22;9687;50.836;12.060;2024-01-30T00:43:47;7.90;59.80
19110;DHT22;9687;50.836;12.060;2024-01-30T00:46:29;7.90;59.70
19110;DHT22;9687;50.836;12.060;2024-01-30T00:48:59;7.90;59.70
19110;DHT22;9687;50.836;12.060;2024-01-30T00:51:27;8.00;59.90
19110;DHT22;9687;50.836;12.060;2024-01-30T00:54:20;8.00;59.80
19110;DHT22;9687;50.836;12.060;2024-01-30T00:57:06;8.00;59.90
19110;DHT22;9687;50.836;12.060;2024-01-30T00:59:34;8.00;59.90
19110;DHT22;9687;50.836;12.060;2024-01-30T01:02:10;8.00;59.80
19110;DHT22;9687;50.836;12.060;2024-01-30T01:04:41;8.00;59.90
19110;DHT22;9687;50.836;12.060;2024-01-30T01:07:20;8.00;59.90
19110;DHT22;9687;50.836;12.060;2024-01-30T01:10:02;8.00;59.90
19110;DHT22;9687;50.836;12.060;2024-01-30T01:12:40;7.90;59.80
19110;DHT22;9687;50.836;12.060;2024-01-30T01:15:07;8.00;59.80
19110;DHT22;9687;50.836;12.060;2024-01-30T01:17:39;8.00;59.80
19110;DHT22;9687;50.836;12.060;2024-01-30T01:20:07;8.10;59.80
19110;DHT22;9687;50.836;12.060;2024-01-30T01:22:37;8.10;59.70
19110;DHT22;9687;50.836;12.060;2024-01-30T01:25:23;8.20;59.70
19110;DHT22;9687;50.836;12.060;2024-01-30T01:27:59;8.20;59.50
19110;DHT22;9687;50.836;12.060;2024-01-30T01:30:28;8.20;59.40
19110;DHT22;9687;50.836;12.060;2024-01-30T01:32:56;8.30;59.40
19110;DHT22;9687;50.836;12.060;2024-01-30T01:35:27;8.30;59.60
19110;DHT22;9687;50.836;12.060;2024-01-30T01:37:59;8.30;59.30
19110;DHT22;9687;50.836;12.060;2024-01-30T01:40:44;8.30;59.30
19110;DHT22;9687;50.836;12.060;2024-01-30T01:43:31;8.30;59.40
19110;DHT22;9687;50.836;12.060;2024-01-30T01:46:16;8.40;59.40
19110;DHT22;9687;50.836;12.060;2024-01-30T01:49:00;8.40;59.30
19110;DHT22;9687;50.836;12.060;2024-01-30T01:51:27;8.40;59.30
19110;DHT22;9687;50.836;12.060;2024-01-30T01:53:56;8.40;59.30
19110;DHT22;9687;50.836;12.060;2024-01-30T01:56:25;8.40;59.20
19110;DHT22;9687;50.836;12.060;2024-01-30T01:58:59;8.40;59.20
19110;DHT22;9687;50.836;12.060;2024-01-30T02:01:28;8.40;59.30
19110;DHT22;9687;50.836;12.060;2024-01-30T02:03:57;8.40;59.30
19110;DHT22;9687;50.836;12.060;2024-01-30T02:06:28;8.30;59.30
19110;DHT22;9687;50.836;12.060;2024-01-30T02:08:56;8.30;59.30
19110;DHT22;9687;50.836;12.060;2024-01-30T02:11:25;8.40;59.40
19110;DHT22;9687;50.836;12.060;2024-01-30T02:13:53;8.40;59.40
19110;DHT22;9687;50.836;12.060;2024-01-30T02:16:23;8.40;59.40
19110;DHT22;9687;50.836;12.060;2024-01-30T02:19:06;8.40;59.40
19110;DHT22;9687;50.836;12.060;2024-01-30T02:21:46;8.40;59.30
19110;DHT22;9687;50.836;12.060;2024-01-30T02:24:15;8.40;59.40
19110;DHT22;9687;50.836;12.060;2024-01-30T02:26:43;8.30;59.40
19110;DHT22;9687;50.836;12.060;2024-01-30T02:29:24;8.30;59.50
19110;DHT22;9687;50.836;12.060;2024-01-30T02:31:54;8.20;59.60
19110;DHT22;9687;50.836;12.060;2024-01-30T02:34:33;8.20;59.80
19110;DHT22;9687;50.836;12.060;2024-01-30T02:37:18;8.10;59.90
19110;DHT22;9687;50.836;12.060;2024-01-30T02:40:11;8.00;59.90
19110;DHT22;9687;50.836;12.060;2024-01-30T02:42:55;8.00;60.00
19110;DHT22;9687;50.836;12.060;2024-01-30T02:45:35;7.90;60.00
19110;DHT22;9687;50.836;12.060;2024-01-30T02:48:06;8.00;60.20
19110;DHT22;9687;50.836;12.060;2024-01-30T02:50:34;7.90;60.10
19110;DHT22;9687;50.836;12.060;2024-01-30T02:53:21;7.80;60.10
19110;DHT22;9687;50.836;12.060;2024-01-30T02:56:10;7.80;60.10
19110;DHT22;9687;50.836;12.060;2024-01-30T02:58:58;7.80;60.90
19110;DHT22;9687;50.836;12.060;2024-01-30T03:01:26;7.80;60.10
19110;DHT22;9687;50.836;12.060;2024-01-30T03:04:14;7.90;60.20
19110;DHT22;9687;50.836;12.060;2024-01-30T03:06:44;7.90;60.10
19110;DHT22;9687;50.836;12.060;2024-01-30T03:09:15;8.00;60.10
19110;DHT22;9687;50.836;12.060;2024-01-30T03:11:54;8.00;60.00
19110;DHT22;9687;50.836;12.060;2024-01-30T03:14:36;8.00;59.90
19110;DHT22;9687;50.836;12.060;2024-01-30T03:17:16;8.00;59.90
19110;DHT22;9687;50.836;12.060;2024-01-30T03:19:44;8.10;59.90
19110;DHT22;9687;50.836;12.060;2024-01-30T03:22:16;8.10;59.80
19110;DHT22;9687;50.836;12.060;2024-01-30T03:24:45;8.10;59.80
19110;DHT22;9687;50.836;12.060;2024-01-30T03:27:12;8.10;59.70
19110;DHT22;9687;50.836;12.060;2024-01-30T03:29:49;8.10;59.70
19110;DHT22;9687;50.836;12.060;2024-01-30T03:32:20;8.20;59.80
19110;DHT22;9687;50.836;12.060;2024-01-30T03:34:47;8.10;59.70
19110;DHT22;9687;50.836;12.060;2024-01-30T03:37:28;8.10;59.70
19110;DHT22;9687;50.836;12.060;2024-01-30T03:39:57;8.10;59.70
19110;DHT22;9687;50.836;12.060;2024-01-30T03:42:48;8.10;59.70
19110;DHT22;9687;50.836;12.060;2024-01-30T03:45:17;8.10;59.60
19110;DHT22;9687;50.836;12.060;2024-01-30T03:47:56;8.00;59.60
19110;DHT22;9687;50.836;12.060;2024-01-30T03:50:23;8.00;59.70
19110;DHT22;9687;50.836;12.060;2024-01-30T03:52:52;7.90;59.70
19110;DHT22;9687;50.836;12.060;2024-01-30T03:55:29;7.90;59.70
19110;DHT22;9687;50.836;12.060;2024-01-30T03:57:57;7.90;59.80
19110;DHT22;9687;50.836;12.060;2024-01-30T04:00:44;7.90;59.80
19110;DHT22;9687;50.836;12.060;2024-01-30T04:03:27;7.90;59.80
19110;DHT22;9687;50.836;12.060;2024-01-30T04:06:10;7.80;59.80
19110;DHT22;9687;50.836;12.060;2024-01-30T04:09:04;7.80;59.80
19110;DHT22;9687;50.836;12.060;2024-01-30T04:11:36;7.80;59.80
19110;DHT22;9687;50.836;12.060;2024-01-30T04:14:07;7.80;59.80
19110;DHT22;9687;50.836;12.060;2024-01-30T04:16:52;7.80;59.90
19110;DHT22;9687;50.836;12.060;2024-01-30T04:19:40;7.80;59.90
19110;DHT22;9687;50.836;12.060;2024-01-30T04:22:09;7.80;59.90
19110;DHT22;9687;50.836;12.060;2024-01-30T04:24:55;7.70;59.80
19110;DHT22;9687;50.836;12.060;2024-01-30T04:27:43;7.70;59.90
19110;DHT22;9687;50.836;12.060;2024-01-30T04:30:10;7.60;59.90
19110;DHT22;9687;50.836;12.060;2024-01-30T04:32:49;7.50;59.90
19110;DHT22;9687;50.836;12.060;2024-01-30T04:35:34;7.50;60.00
19110;DHT22;9687;50.836;12.060;2024-01-30T04:38:01;7.50;60.10
19110;DHT22;9687;50.836;12.060;2024-01-30T04:40:29;7.50;60.20
19110;DHT22;9687;50.836;12.060;2024-01-30T04:42:59;7.50;60.20
19110;DHT22;9687;50.836;12.060;2024-01-30T04:45:36;7.50;60.20
19110;DHT22;9687;50.836;12.060;2024-01-30T04:48:05;7.50;60.10
19110;DHT22;9687;50.836;12.060;2024-01-30T04:50:34;7.50;60.10
19110;DHT22;9687;50.836;12.060;2024-01-30T04:53:03;7.50;60.10
19110;DHT22;9687;50.836;12.060;2024-01-30T04:55:30;7.50;60.10
19110;DHT22;9687;50.836;12.060;2024-01-30T04:57:59;7.50;60.00
19110;DHT22;9687;50.836;12.060;2024-01-30T05:00:27;7.50;60.00
19110;DHT22;9687;50.836;12.060;2024-01-30T05:03:06;7.50;60.10
19110;DHT22;9687;50.836;12.060;2024-01-30T05:05:35;7.50;60.10
19110;DHT22;9687;50.836;12.060;2024-01-30T05:08:03;7.40;60.10
19110;DHT22;9687;50.836;12.060;2024-01-30T05:10:33;7.40;60.10
19110;DHT22;9687;50.836;12.060;2024-01-30T05:13:17;7.40;60.80
19110;DHT22;9687;50.836;12.060;2024-01-30T05:15:48;7.50;60.10
19110;DHT22;9687;50.836;12.060;2024-01-30T05:18:28;7.50;60.10
19110;DHT22;9687;50.836;12.060;2024-01-30T05:21:10;7.40;60.00
19110;DHT22;9687;50.836;12.060;2024-01-30T05:23:52;7.40;60.10
19110;DHT22;9687;50.836;12.060;2024-01-30T05:26:23;7.40;60.10
19110;DHT22;9687;50.836;12.060;2024-01-30T05:29:02;7.30;60.20
19110;DHT22;9687;50.836;12.060;2024-01-30T05:31:34;7.30;60.20
19110;DHT22;9687;50.836;12.060;2024-01-30T05:34:03;7.30;60.20
19110;DHT22;9687;50.836;12.060;2024-01-30T05:36:32;7.30;60.20
19110;DHT22;9687;50.836;12.060;2024-01-30T05:39:14;7.30;60.30
19110;DHT22;9687;50.836;12.060;2024-01-30T05:42:03;7.30;60.30
19110;DHT22;9687;50.836;12.060;2024-01-30T05:44:34;7.30;61.20
19110;DHT22;9687;50.836;12.060;2024-01-30T05:47:15;7.30;60.50
19110;DHT22;9687;50.836;12.060;2024-01-30T05:49:57;7.20;60.40
19110;DHT22;9687;50.836;12.060;2024-01-30T05:52:43;7.40;60.70
19110;DHT22;9687;50.836;12.060;2024-01-30T05:55:13;7.20;60.50
19110;DHT22;9687;50.836;12.060;2024-01-30T05:57:42;7.20;60.70
19110;DHT22;9687;50.836;12.060;2024-01-30T06:00:13;7.10;60.90
19110;DHT22;9687;50.836;12.060;2024-01-30T06:02:44;7.10;61.00
19110;DHT22;9687;50.836;12.060;2024-01-30T06:05:12;7.20;61.20
19110;DHT22;9687;50.836;12.060;2024-01-30T06:08:06;7.00;61.80
19110;DHT22;9687;50.836;12.060;2024-01-30T06:10:41;7.00;60.90
19110;DHT22;9687;50.836;12.060;2024-01-30T06:13:09;7.10;61.00
19110;DHT22;9687;50.836;12.060;2024-01-30T06:15:43;7.00;60.80
19110;DHT22;9687;50.836;12.060;2024-01-30T06:18:10;7.20;60.90
19110;DHT22;9687;50.836;12.060;2024-01-30T06:20:45;7.20;60.90
19110;DHT22;9687;50.836;12.060;2024-01-30T06:23:14;7.20;60.80
19110;DHT22;9687;50.836;12.060;2024-01-30T06:26:00;7.20;60.70
19110;DHT22;9687;50.836;12.060;2024-01-30T06:28:45;7.20;60.80
19110;DHT22;9687;50.836;12.060;2024-01-30T06:31:28;7.20;60.70
19110;DHT22;9687;50.836;12.060;2024-01-30T06:34:00;7.20;61.40
19110;DHT22;9687;50.836;12.060;2024-01-30T06:36:33;7.30;60.60
19110;DHT22;9687;50.836;12.060;2024-01-30T06:39:06;7.30;60.60
19110;DHT22;9687;50.836;12.060;2024-01-30T06:41:34;7.30;60.60
19110;DHT22;9687;50.836;12.060;2024-01-30T06:44:24;7.30;60.60
19110;DHT22;9687;50.836;12.060;2024-01-30T06:47:12;7.30;60.60
19110;DHT22;9687;50.836;12.060;2024-01-30T06:49:51;7.30;60.60
19110;DHT22;9687;50.836;12.060;2024-01-30T06:52:29;7.30;60.60
19110;DHT22;9687;50.836;12.060;2024-01-30T06:55:02;7.30;60.60
19110;DHT22;9687;50.836;12.060;2024-01-30T06:57:32;7.30;60.70
19110;DHT22;9687;50.836;12.060;2024-01-30T07:00:27;7.20;60.80
19110;DHT22;9687;50.836;12.060;2024-01-30T07:02:55;7.20;60.90
19110;DHT22;9687;50.836;12.060;2024-01-30T07:05:23;7.10;61.00
19110;DHT22;9687;50.836;12.060;2024-01-30T07:07:53;7.10;61.20
19110;DHT22;9687;50.836;12.060;2024-01-30T07:10:24;7.10;61.40
19110;DHT22;9687;50.836;12.060;2024-01-30T07:12:54;7.00;61.50
19110;DHT22;9687;50.836;12.060;2024-01-30T07:15:21;7.00;61.50
19110;DHT22;9687;50.836;12.060;2024-01-30T07:18:02;7.00;61.70
19110;DHT22;9687;50.836;12.060;2024-01-30T07:20:31;7.00;61.80
19110;DHT22;9687;50.836;12.060;2024-01-30T07:22:58;7.00;62.00
19110;DHT22;9687;50.836;12.060;2024-01-30T07:25:26;7.00;61.90
19110;DHT22;9687;50.836;12.060;2024-01-30T07:49:18;7.10;61.90
19110;DHT22;9687;50.836;12.060;2024-01-30T07:51:46;7.20;62.40
19110;DHT22;9687;50.836;12.060;2024-01-30T07:54:16;7.30;62.40
19110;DHT22;9687;50.836;12.060;2024-01-30T07:56:50;7.40;62.10
19110;DHT22;9687;50.836;12.060;2024-01-30T07:59:18;7.50;61.90
19110;DHT22;9687;50.836;12.060;2024-01-30T08:01:47;7.50;61.70
19110;DHT22;9687;50.836;12.060;2024-01-30T08:04:30;7.50;61.60
19110;DHT22;9687;50.836;12.060;2024-01-30T08:06:58;7.40;61.50
19110;DHT22;9687;50.836;12.060;2024-01-30T08:09:37;7.40;61.70
19110;DHT22;9687;50.836;12.060;2024-01-30T08:12:05;7.40;61.80
19110;DHT22;9687;50.836;12.060;2024-01-30T08:14:32;7.40;61.90
19110;DHT22;9687;50.836;12.060;2024-01-30T08:17:05;7.40;62.00
19110;DHT22;9687;50.836;12.060;2024-01-30T08:19:36;7.30;61.90
19110;DHT22;9687;50.836;12.060;2024-01-30T08:22:04;7.30;62.00
19110;DHT22;9687;50.836;12.060;2024-01-30T08:24:31;7.40;62.10
19110;DHT22;9687;50.836;12.060;2024-01-30T08:27:02;7.40;62.10
19110;DHT22;9687;50.836;12.060;2024-01-30T08:29:30;7.40;63.00
19110;DHT22;9687;50.836;12.060;2024-01-30T08:31:58;7.40;62.20
19110;DHT22;9687;50.836;12.060;2024-01-30T08:34:26;7.50;62.30
19110;DHT22;9687;50.836;12.060;2024-01-30T08:36:57;7.50;62.20
19110;DHT22;9687;50.836;12.060;2024-01-30T08:39:35;7.60;62.30
19110;DHT22;9687;50.836;12.060;2024-01-30T08:42:03;7.60;62.20
19110;DHT22;9687;50.836;12.060;2024-01-30T08:44:31;7.70;62.30
19110;DHT22;9687;50.836;12.060;2024-01-30T08:46:59;7.80;62.20
19110;DHT22;9687;50.836;12.060;2024-01-30T08:49:48;7.90;62.10
19110;DHT22;9687;50.836;12.060;2024-01-30T08:52:19;8.00;62.00
19110;DHT22;9687;50.836;12.060;2024-01-30T08:55:06;8.10;62.00
19110;DHT22;9687;50.836;12.060;2024-01-30T08:57:36;8.10;62.00
19110;DHT22;9687;50.836;12.060;2024-01-30T09:00:10;8.20;62.00
19110;DHT22;9687;50.836;12.060;2024-01-30T09:02:59;8.30;62.00
19110;DHT22;9687;50.836;12.060;2024-01-30T09:05:26;8.40;61.90
19110;DHT22;9687;50.836;12.060;2024-01-30T09:07:58;8.50;61.80
19110;DHT22;9687;50.836;12.060;2024-01-30T09:10:25;8.50;61.80
19110;DHT22;9687;50.836;12.060;2024-01-30T09:12:58;8.60;61.70
19110;DHT22;9687;50.836;12.060;2024-01-30T09:15:26;8.70;61.60
19110;DHT22;9687;50.836;12.060;2024-01-30T09:17:59;8.70;61.50
19110;DHT22;9687;50.836;12.060;2024-01-30T09:20:32;8.70;61.50
19110;DHT22;9687;50.836;12.060;2024-01-30T09:23:04;8.90;61.80
19110;DHT22;9687;50.836;12.060;2024-01-30T09:25:39;8.90;61.70
19110;DHT22;9687;50.836;12.060;2024-01-30T09:28:10;9.00;61.60
19110;DHT22;9687;50.836;12.060;2024-01-30T09:30:37;9.10;61.70
19110;DHT22;9687;50.836;12.060;2024-01-30T09:33:06;9.10;61.60
19110;DHT22;9687;50.836;12.060;2024-01-30T09:35:34;9.10;61.60
19110;DHT22;9687;50.836;12.060;2024-01-30T09:38:04;9.20;61.60
19110;DHT22;9687;50.836;12.060;2024-01-30T09:40:32;9.20;61.60
19110;DHT22;9687;50.836;12.060;2024-01-30T09:43:05;9.20;61.70
19110;DHT22;9687;50.836;12.060;2024-01-30T09:45:33;9.20;61.70
19110;DHT22;9687;50.836;12.060;2024-01-30T09:48:01;9.20;61.80
19110;DHT22;9687;50.836;12.060;2024-01-30T09:50:29;9.20;61.90
19110;DHT22;9687;50.836;12.060;2024-01-30T09:53:08;9.20;62.00
19110;DHT22;9687;50.836;12.060;2024-01-30T09:55:38;9.20;62.10
19110;DHT22;9687;50.836;12.060;2024-01-30T09:58:11;9.20;62.20
19110;DHT22;9687;50.836;12.060;2024-01-30T10:00:39;9.20;62.10
19110;DHT22;9687;50.836;12.060;2024-01-30T10:03:20;9.30;62.20
19110;DHT22;9687;50.836;12.060;2024-01-30T10:05:49;9.30;62.20
19110;DHT22;9687;50.836;12.060;2024-01-30T10:08:23;9.40;62.20
19110;DHT22;9687;50.836;12.060;2024-01-30T10:10:51;9.40;62.10
19110;DHT22;9687;50.836;12.060;2024-01-30T10:13:18;9.40;62.10
19110;DHT22;9687;50.836;12.060;2024-01-30T10:15:47;9.50;62.20
19110;DHT22;9687;50.836;12.060;2024-01-30T10:18:14;9.50;62.20
19110;DHT22;9687;50.836;12.060;2024-01-30T10:20:58;9.60;62.30
19110;DHT22;9687;50.836;12.060;2024-01-30T10:23:28;9.60;62.30
19110;DHT22;9687;50.836;12.060;2024-01-30T10:25:56;9.60;62.30
19110;DHT22;9687;50.836;12.060;2024-01-30T10:28:26;9.60;62.30
19110;DHT22;9687;50.836;12.060;2024-01-30T10:30:58;9.70;62.60
19110;DHT22;9687;50.836;12.060;2024-01-30T10:33:33;9.60;62.50
19110;DHT22;9687;50.836;12.060;2024-01-30T10:36:04;9.70;62.70
19110;DHT22;9687;50.836;12.060;2024-01-30T10:38:33;9.80;62.90
19110;DHT22;9687;50.836;12.060;2024-01-30T10:41:05;9.90;63.00
19110;DHT22;9687;50.836;12.060;2024-01-30T10:43:35;10.00;62.00
19110;DHT22;9687;50.836;12.060;2024-01-30T10:46:09;10.00;61.80
19110;DHT22;9687;50.836;12.060;2024-01-30T10:48:44;10.10;62.00
19110;DHT22;9687;50.836;12.060;2024-01-30T10:51:20;10.20;62.00
19110;DHT22;9687;50.836;12.060;2024-01-30T10:54:02;10.30;62.20
19110;DHT22;9687;50.836;12.060;2024-01-30T10:56:35;10.30;62.20
19110;DHT22;9687;50.836;12.060;2024-01-30T10:59:03;10.40;62.50
19110;DHT22;9687;50.836;12.060;2024-01-30T11:01:42;10.50;62.50
19110;DHT22;9687;50.836;12.060;2024-01-30T11:04:09;10.60;62.60
19110;DHT22;9687;50.836;12.060;2024-01-30T11:06:40;10.70;62.60
19110;DHT22;9687;50.836;12.060;2024-01-30T11:09:12;10.80;62.60
19110;DHT22;9687;50.836;12.060;2024-01-30T11:11:55;10.80;62.40
19110;DHT22;9687;50.836;12.060;2024-01-30T11:14:29;11.00;62.50
19110;DHT22;9687;50.836;12.060;2024-01-30T11:16:57;11.00;62.40
19110;DHT22;9687;50.836;12.060;2024-01-30T11:19:34;11.10;62.30
19110;DHT22;9687;50.836;12.060;2024-01-30T11:22:02;11.20;62.30
19110;DHT22;9687;50.836;12.060;2024-01-30T11:24:40;11.30;62.20
19110;DHT22;9687;50.836;12.060;2024-01-30T11:27:08;11.50;62.20
19110;DHT22;9687;50.836;12.060;2024-01-30T11:29:36;11.60;62.10
19110;DHT22;9687;50.836;12.060;2024-01-30T11:32:04;11.70;62.10
19110;DHT22;9687;50.836;12.060;2024-01-30T11:34:32;11.70;61.90
19110;DHT22;9687;50.836;12.060;2024-01-30T11:37:03;11.80;61.80
19110;DHT22;9687;50.836;12.060;2024-01-30T11:39:33;11.80;61.80
19110;DHT22;9687;50.836;12.060;2024-01-30T11:42:04;11.70;61.60
19110;DHT22;9687;50.836;12.060;2024-01-30T11:44:34;11.70;61.80
19110;DHT22;9687;50.836;12.060;2024-01-30T11:47:03;11.70;62.00
19110;DHT22;9687;50.836;12.060;2024-01-30T11:49:33;11.70;62.00
19110;DHT22;9687;50.836;12.060;2024-01-30T11:52:02;11.70;62.20
19110;DHT22;9687;50.836;12.060;2024-01-30T11:54:34;11.70;62.20
19110;DHT22;9687;50.836;12.060;2024-01-30T11:57:02;11.70;62.30
19110;DHT22;9687;50.836;12.060;2024-01-30T11:59:34;11.80;62.50
19110;DHT22;9687;50.836;12.060;2024-01-30T12:02:06;11.80;62.50
19110;DHT22;9687;50.836;12.060;2024-01-30T12:04:34;11.90;62.60
19110;DHT22;9687;50.836;12.060;2024-01-30T12:07:03;11.90;62.70
19110;DHT22;9687;50.836;12.060;2024-01-30T12:09:37;11.90;62.70
19110;DHT22;9687;50.836;12.060;2024-01-30T12:12:09;11.90;62.90
19110;DHT22;9687;50.836;12.060;2024-01-30T12:14:40;11.90;63.20
19110;DHT22;9687;50.836;12.060;2024-01-30T12:17:09;12.00;63.30
19110;DHT22;9687;50.836;12.060;2024-01-30T12:19:42;12.00;63.40
19110;DHT22;9687;50.836;12.060;2024-01-30T12:22:12;12.10;63.60
19110;DHT22;9687;50.836;12.060;2024-01-30T12:24:40;12.10;63.80
19110;DHT22;9687;50.836;12.060;2024-01-30T12:27:14;12.20;63.80
19110;DHT22;9687;50.836;12.060;2024-01-30T12:29:47;12.20;63.80
19110;DHT22;9687;50.836;12.060;2024-01-30T12:32:18;12.30;63.80
19110;DHT22;9687;50.836;12.060;2024-01-30T12:34:47;12.30;63.80
19110;DHT22;9687;50.836;12.060;2024-01-30T12:37:18;12.40;64.00
19110;DHT22;9687;50.836;12.060;2024-01-30T12:40:00;12.40;63.90
19110;DHT22;9687;50.836;12.060;2024-01-30T12:42:45;12.40;64.00
19110;DHT22;9687;50.836;12.060;2024-01-30T12:45:18;12.50;64.10
19110;DHT22;9687;50.836;12.060;2024-01-30T12:47:52;12.40;64.10
19110;DHT22;9687;50.836;12.060;2024-01-30T12:50:23;12.50;64.20
19110;DHT22;9687;50.836;12.060;2024-01-30T12:52:53;12.50;64.10
19110;DHT22;9687;50.836;12.060;2024-01-30T12:55:23;12.50;64.10
19110;DHT22;9687;50.836;12.060;2024-01-30T12:57:55;12.50;64.20
19110;DHT22;9687;50.836;12.060;2024-01-30T13:00:26;12.50;64.20
19110;DHT22;9687;50.836;12.060;2024-01-30T13:02:58;12.50;64.40
19110;DHT22;9687;50.836;12.060;2024-01-30T13:05:25;12.50;64.50
19110;DHT22;9687;50.836;12.060;2024-01-30T13:07:53;12.50;64.40
19110;DHT22;9687;50.836;12.060;2024-01-30T13:10:38;12.50;64.50
19110;DHT22;9687;50.836;12.060;2024-01-30T13:13:06;12.50;64.60
19110;DHT22;9687;50.836;12.060;2024-01-30T13:15:35;12.50;64.60
19110;DHT22;9687;50.836;12.060;2024-01-30T13:18:11;12.50;64.70
19110;DHT22;9687;50.836;12.060;2024-01-30T13:20:38;12.50;64.70
19110;DHT22;9687;50.836;12.060;2024-01-30T13:23:09;12.50;64.70
19110;DHT22;9687;50.836;12.060;2024-01-30T13:25:37;12.50;64.70
19110;DHT22;9687;50.836;12.060;2024-01-30T13:28:19;12.50;64.70
19110;DHT22;9687;50.836;12.060;2024-01-30T13:30:54;12.50;64.60
19110;DHT22;9687;50.836;12.060;2024-01-30T13:33:24;12.40;64.60
19110;DHT22;9687;50.836;12.060;2024-01-30T13:35:52;12.40;64.60
19110;DHT22;9687;50.836;12.060;2024-01-30T13:38:22;12.40;64.80
19110;DHT22;9687;50.836;12.060;2024-01-30T13:40:55;12.30;64.80
19110;DHT22;9687;50.836;12.060;2024-01-30T13:43:23;12.30;64.90
19110;DHT22;9687;50.836;12.060;2024-01-30T13:45:50;12.30;65.10
19110;DHT22;9687;50.836;12.060;2024-01-30T13:48:25;12.30;65.20
19110;DHT22;9687;50.836;12.060;2024-01-30T13:50:52;12.20;65.10
19110;DHT22;9687;50.836;12.060;2024-01-30T13:53:20;12.20;65.20
19110;DHT22;9687;50.836;12.060;2024-01-30T13:55:48;12.30;65.30
19110;DHT22;9687;50.836;12.060;2024-01-30T13:58:30;12.20;65.20
19110;DHT22;9687;50.836;12.060;2024-01-30T14:01:05;12.20;65.20
19110;DHT22;9687;50.836;12.060;2024-01-30T14:03:41;12.20;65.30
19110;DHT22;9687;50.836;12.060;2024-01-30T14:06:18;12.20;65.30
19110;DHT22;9687;50.836;12.060;2024-01-30T14:08:45;12.10;65.40
19110;DHT22;9687;50.836;12.060;2024-01-30T14:11:16;12.10;65.40
19110;DHT22;9687;50.836;12.060;2024-01-30T14:13:44;12.10;65.50
19110;DHT22;9687;50.836;12.060;2024-01-30T14:16:14;12.10;65.60
19110;DHT22;9687;50.836;12.060;2024-01-30T14:18:43;12.10;65.60
19110;DHT22;9687;50.836;12.060;2024-01-30T14:21:10;12.00;65.50
19110;DHT22;9687;50.836;12.060;2024-01-30T14:23:37;12.00;65.60
19110;DHT22;9687;50.836;12.060;2024-01-30T14:26:07;12.00;66.40
19110;DHT22;9687;50.836;12.060;2024-01-30T14:28:34;11.90;65.50
19110;DHT22;9687;50.836;12.060;2024-01-30T14:31:10;11.90;65.60
19110;DHT22;9687;50.836;12.060;2024-01-30T14:33:40;11.90;65.70
19110;DHT22;9687;50.836;12.060;2024-01-30T14:36:15;11.90;65.80
19110;DHT22;9687;50.836;12.060;2024-01-30T14:38:44;11.80;65.90
19110;DHT22;9687;50.836;12.060;2024-01-30T14:41:12;11.90;66.20
19110;DHT22;9687;50.836;12.060;2024-01-30T14:43:43;11.70;65.90
19110;DHT22;9687;50.836;12.060;2024-01-30T14:46:12;11.70;65.90
19110;DHT22;9687;50.836;12.060;2024-01-30T14:48:41;11.70;65.90
19110;DHT22;9687;50.836;12.060;2024-01-30T14:51:09;11.70;65.90
19110;DHT22;9687;50.836;12.060;2024-01-30T14:53:39;11.70;65.90
19110;DHT22;9687;50.836;12.060;2024-01-30T14:56:25;11.70;65.90
19110;DHT22;9687;50.836;12.060;2024-01-30T14:59:16;11.60;65.80
19110;DHT22;9687;50.836;12.060;2024-01-30T15:01:43;11.70;65.90
19110;DHT22;9687;50.836;12.060;2024-01-30T15:04:12;11.60;65.80
19110;DHT22;9687;50.836;12.060;2024-01-30T15:06:39;11.60;65.90
19110;DHT22;9687;50.836;12.060;2024-01-30T15:09:14;11.60;66.20
19110;DHT22;9687;50.836;12.060;2024-01-30T15:11:43;11.50;66.10
19110;DHT22;9687;50.836;12.060;2024-01-30T15:14:21;11.50;66.20
19110;DHT22;9687;50.836;12.060;2024-01-30T15:16:51;11.50;66.40
19110;DHT22;9687;50.836;12.060;2024-01-30T15:19:21;11.40;66.30
19110;DHT22;9687;50.836;12.060;2024-01-30T15:21:48;11.50;66.50
19110;DHT22;9687;50.836;12.060;2024-01-30T15:24:28;11.40;66.50
19110;DHT22;9687;50.836;12.060;2024-01-30T15:26:55;11.40;66.50
19110;DHT22;9687;50.836;12.060;2024-01-30T15:29:23;11.40;66.60
19110;DHT22;9687;50.836;12.060;2024-01-30T15:31:53;11.30;66.60
19110;DHT22;9687;50.836;12.060;2024-01-30T15:34:21;11.30;66.60
19110;DHT22;9687;50.836;12.060;2024-01-30T15:36:52;11.30;66.70
19110;DHT22;9687;50.836;12.060;2024-01-30T15:39:20;11.30;66.80
19110;DHT22;9687;50.836;12.060;2024-01-30T15:41:48;11.20;66.70
19110;DHT22;9687;50.836;12.060;2024-01-30T15:44:21;11.20;66.80
19110;DHT22;9687;50.836;12.060;2024-01-30T15:46:50;11.20;66.90
19110;DHT22;9687;50.836;12.060;2024-01-30T15:49:17;11.20;66.90
19110;DHT22;9687;50.836;12.060;2024-01-30T15:52:00;11.20;67.10
19110;DHT22;9687;50.836;12.060;2024-01-30T15:54:28;11.10;67.10
19110;DHT22;9687;50.836;12.060;2024-01-30T15:57:19;11.10;67.10
19110;DHT22;9687;50.836;12.060;2024-01-30T15:59:50;11.10;67.30
19110;DHT22;9687;50.836;12.060;2024-01-30T16:02:23;11.00;67.50
19110;DHT22;9687;50.836;12.060;2024-01-30T16:04:59;11.00;67.50
19110;DHT22;9687;50.836;12.060;2024-01-30T16:07:32;11.00;67.30
19110;DHT22;9687;50.836;12.060;2024-01-30T16:09:59;11.00;67.60
19110;DHT22;9687;50.836;12.060;2024-01-30T16:12:33;10.90;67.60
19110;DHT22;9687;50.836;12.060;2024-01-30T16:15:00;10.90;67.70
19110;DHT22;9687;50.836;12.060;2024-01-30T16:17:28;10.90;67.80
19110;DHT22;9687;50.836;12.060;2024-01-30T16:20:03;10.90;67.80
19110;DHT22;9687;50.836;12.060;2024-01-30T16:23:07;10.90;67.80
19110;DHT22;9687;50.836;12.060;2024-01-30T16:26:01;10.80;67.60
19110;DHT22;9687;50.836;12.060;2024-01-30T16:28:31;10.80;67.70
19110;DHT22;9687;50.836;12.060;2024-01-30T16:31:15;10.80;67.90
19110;DHT22;9687;50.836;12.060;2024-01-30T16:33:48;10.80;67.80
19110;DHT22;9687;50.836;12.060;2024-01-30T16:36:16;10.80;68.80
19110;DHT22;9687;50.836;12.060;2024-01-30T16:38:46;10.80;68.30